| time (UTC) | temp C | wind direction | speed KPH | gust KPH | rain 1hr cm | rain 24hr cm | rain mn cm | humidity % | barometer mb |
| 20260510230004 | 6 | 0 | 0.0 | 0.0 | 0.00 | 0.00 | 0.00 | 82 | 1015.5 |
| 20260510223004 | 5 | 0 | 0.0 | 0.0 | 0.00 | 0.00 | 0.00 | 85 | 1015.4 |
| 20260510220005 | 5 | 0 | 0.0 | 0.0 | 0.00 | 0.00 | 0.00 | 84 | 1015.3 |
| 20260510214504 | 6 | 0 | 0.0 | 0.0 | 0.00 | 0.00 | 0.00 | 83 | 1015.3 |
| 20260510211504 | 7 | 0 | 0.0 | 0.0 | 0.00 | 0.00 | 0.00 | 78 | 1015.4 |
| 20260510210004 | 7 | 0 | 0.0 | 0.0 | 0.00 | 0.00 | 0.00 | 78 | 1015.3 |
| 20260510201505 | 10 | 0 | 0.0 | 0.0 | 0.00 | 0.00 | 0.00 | 70 | 1015.4 |
| 20260510194504 | 11 | 0 | 0.0 | 0.0 | 0.00 | 0.00 | 0.00 | 66 | 1015.3 |
| 20260510193005 | 11 | 0 | 0.0 | 0.0 | 0.00 | 0.00 | 0.00 | 65 | 1015.2 |
| 20260510191505 | 11 | 0 | 0.0 | 8.0 | 0.00 | 0.00 | 0.00 | 64 | 1015.1 |
| 20260510190004 | 12 | 15 | 8.0 | 19.3 | 0.00 | 0.00 | 0.00 | 62 | 1015.0 |
| 20260510184504 | 12 | 15 | 6.4 | 16.1 | 0.00 | 0.00 | 0.00 | 65 | 1015.0 |
| 20260510183004 | 12 | 9 | 8.0 | 19.3 | 0.00 | 0.00 | 0.00 | 65 | 1015.1 |
| 20260510181504 | 12 | 22 | 14.5 | 25.7 | 0.00 | 0.00 | 0.00 | 65 | 1015.0 |
| 20260510180004 | 12 | 28 | 11.3 | 20.9 | 0.00 | 0.00 | 0.00 | 65 | 1015.1 |
| 20260510174504 | 12 | 20 | 12.9 | 24.1 | 0.00 | 0.00 | 0.00 | 65 | 1015.3 |
| 20260510173005 | 12 | 20 | 16.1 | 29.0 | 0.00 | 0.00 | 0.00 | 65 | 1015.3 |
| 20260510171504 | 12 | 23 | 19.3 | 32.2 | 0.00 | 0.00 | 0.00 | 64 | 1015.3 |
| 20260510170004 | 12 | 22 | 16.1 | 27.4 | 0.00 | 0.00 | 0.00 | 64 | 1015.3 |
| 20260510161504 | 12 | 28 | 14.5 | 32.2 | 0.00 | 0.00 | 0.00 | 68 | 1015.7 |
| 20260510160004 | 12 | 14 | 19.3 | 32.2 | 0.00 | 0.00 | 0.00 | 68 | 1015.9 |
| 20260510154504 | 13 | 30 | 14.5 | 24.1 | 0.00 | 0.00 | 0.00 | 67 | 1015.8 |
| 20260510153004 | 13 | 16 | 11.3 | 27.4 | 0.00 | 0.00 | 0.00 | 67 | 1016.0 |
| 20260510151504 | 13 | 17 | 14.5 | 29.0 | 0.00 | 0.00 | 0.00 | 65 | 1016.1 |
| 20260510150004 | 13 | 14 | 16.1 | 29.0 | 0.00 | 0.00 | 0.00 | 67 | 1016.2 |
| 20260510144504 | 13 | 15 | 14.5 | 33.8 | 0.00 | 0.00 | 0.00 | 66 | 1016.5 |
| 20260510143004 | 14 | 33 | 12.9 | 32.2 | 0.00 | 0.00 | 0.00 | 64 | 1016.4 |
| 20260510140004 | 14 | 31 | 16.1 | 25.7 | 0.00 | 0.00 | 0.00 | 65 | 1016.4 |
| 20260510134505 | 14 | 45 | 11.3 | 22.5 | 0.00 | 0.00 | 0.00 | 64 | 1016.6 |
| 20260510133004 | 15 | 38 | 16.1 | 32.2 | 0.00 | 0.00 | 0.00 | 63 | 1016.6 |
| 20260510131504 | 15 | 50 | 14.5 | 24.1 | 0.00 | 0.00 | 0.00 | 65 | 1016.5 |
| 20260510130004 | 15 | 0 | 0.0 | 0.0 | 0.00 | 0.00 | 0.00 | 63 | 1016.6 |
| 20260510124504 | 15 | 0 | 0.0 | 0.0 | 0.00 | 0.00 | 0.00 | 64 | 1016.7 |
| 20260510121504 | 15 | 0 | 0.0 | 0.0 | 0.00 | 0.00 | 0.00 | 64 | 1016.9 |
| 20260510120004 | 15 | 0 | 0.0 | 0.0 | 0.00 | 0.00 | 0.00 | 64 | 1017.1 |
| 20260510114504 | 13 | 0 | 0.0 | 0.0 | 0.00 | 0.00 | 0.00 | 63 | 1017.3 |
| 20260510110004 | 13 | 0 | 0.0 | 0.0 | 0.00 | 0.00 | 0.00 | 67 | 1017.6 |
| 20260510104503 | 14 | 0 | 0.0 | 0.0 | 0.00 | 0.00 | 0.00 | 67 | 1017.7 |
| 20260510101503 | 13 | 0 | 0.0 | 0.0 | 0.00 | 0.00 | 0.00 | 65 | 1017.9 |
| 20260510094505 | 13 | 0 | 0.0 | 0.0 | 0.00 | 0.00 | 0.00 | 68 | 1017.9 |
| 20260510093005 | 13 | 0 | 0.0 | 0.0 | 0.00 | 0.00 | 0.00 | 67 | 1017.9 |
| 20260510091505 | 13 | 0 | 0.0 | 0.0 | 0.00 | 0.00 | 0.00 | 69 | 1017.8 |
| 20260510090005 | 12 | 0 | 0.0 | 0.0 | 0.00 | 0.00 | 0.00 | 71 | 1018.0 |
| 20260510081505 | 12 | 0 | 0.0 | 0.0 | 0.00 | 0.00 | 0.00 | 70 | 1018.1 |
| 20260510073005 | 11 | 0 | 0.0 | 0.0 | 0.00 | 0.00 | 0.00 | 74 | 1018.0 |
| 20260510071505 | 11 | 0 | 0.0 | 0.0 | 0.00 | 0.00 | 0.00 | 76 | 1018.0 |
| 20260510070005 | 10 | 0 | 0.0 | 0.0 | 0.00 | 0.00 | 0.00 | 76 | 1017.8 |
| 20260510064505 | 10 | 0 | 0.0 | 0.0 | 0.00 | 0.00 | 0.00 | 77 | 1017.9 |
| 20260510061505 | 10 | 0 | 0.0 | 0.0 | 0.00 | 0.00 | 0.00 | 79 | 1017.6 |
| 20260510054505 | 8 | 0 | 0.0 | 0.0 | 0.00 | 0.00 | 0.00 | 81 | 1017.6 |
| 20260510053006 | 8 | 0 | 0.0 | 0.0 | 0.00 | 0.00 | 0.00 | 82 | 1017.6 |
| 20260510051505 | 8 | 0 | 0.0 | 0.0 | 0.00 | 0.00 | 0.00 | 82 | 1017.7 |
| 20260510043005 | 8 | 0 | 0.0 | 0.0 | 0.00 | 0.00 | 0.00 | 79 | 1017.4 |
| 20260510033005 | 10 | 0 | 0.0 | 0.0 | 0.00 | 0.00 | 0.00 | 71 | 1017.6 |
| 20260510023005 | 11 | 0 | 0.0 | 0.0 | 0.00 | 0.00 | 0.00 | 66 | 1018.1 |
| 20260510021504 | 11 | 0 | 0.0 | 0.0 | 0.00 | 0.00 | 0.00 | 66 | 1018.1 |
| 20260510011505 | 12 | 0 | 0.0 | 0.0 | 0.00 | 0.00 | 0.00 | 74 | 1017.9 |
| 20260510010004 | 12 | 0 | 0.0 | 0.0 | 0.00 | 0.00 | 0.00 | 74 | 1017.9 |
| 20260510004504 | 12 | 0 | 0.0 | 0.0 | 0.00 | 0.00 | 0.00 | 73 | 1018.0 |
| 20260510001504 | 13 | 0 | 0.0 | 20.9 | 0.00 | 0.00 | 0.00 | 73 | 1018.0 |
| 20260509234504 | 13 | 0 | 0.0 | 0.0 | 0.00 | 0.00 | 0.00 | 72 | 1018.0 |
| 20260509233005 | 13 | 0 | 0.0 | 0.0 | 0.00 | 0.00 | 0.00 | 73 | 1017.9 |